Time;durP1;ratioP1;P1;durP2;ratioP2;P2;SDS_P1;SDS_P2;PMS_P1;PMS_P2;Temp;Humidity;BMP_temperature;BMP_pressure;BME280_temperature;BME280_humidity;BME280_pressure;Samples;Min_cycle;Max_cycle;Signal;HPM_P1;HPM_P2
2023/10/15 00:01:27;;;;;;;21.02;16.40;;;;;;;;;;5107650;27;20462;-80
2023/10/15 00:03:53;;;;;;;20.25;16.10;;;;;;;;;;5114371;27;20027;-77
2023/10/15 00:06:18;;;;;;;18.95;15.70;;;;;;;;;;5117408;27;20655;-78
2023/10/15 00:08:43;;;;;;;20.05;15.07;;;;;;;;;;5114594;27;20311;-78
2023/10/15 00:11:17;;;;;;;17.48;13.40;;;;;;;;;;5116812;27;20311;-75
2023/10/15 00:13:43;;;;;;;18.02;13.93;;;;;;;;;;5114223;28;20472;-75
2023/10/15 00:16:09;;;;;;;22.73;15.48;;;;;;;;;;5116175;27;20023;-76
2023/10/15 00:18:36;;;;;;;19.65;15.73;;;;;;;;;;5114741;28;20380;-77
2023/10/15 00:21:08;;;;;;;20.13;17.35;;;;;;;;;;5112887;28;20020;-76
2023/10/15 00:23:33;;;;;;;22.73;17.08;;;;;;;;;;5107158;27;20418;-75
2023/10/15 00:25:59;;;;;;;18.13;15.73;;;;;;;;;;5115449;28;20092;-76
2023/10/15 00:28:27;;;;;;;19.90;15.10;;;;;;;;;;5113546;28;20110;-76
2023/10/15 00:30:53;;;;;;;18.80;15.57;;;;;;;;;;5116663;28;20027;-77
2023/10/15 00:33:19;;;;;;;21.50;14.98;;;;;;;;;;5114291;28;20045;-78
2023/10/15 00:35:50;;;;;;;21.50;15.20;;;;;;;;;;5114489;28;20100;-80
2023/10/15 00:38:19;;;;;;;19.70;13.98;;;;;;;;;;5114301;28;20346;-77
2023/10/15 00:40:45;;;;;;;17.75;14.82;;;;;;;;;;5115358;27;20023;-75
2023/10/15 00:43:13;;;;;;;21.92;14.50;;;;;;;;;;5114756;28;20040;-78
2023/10/15 00:45:45;;;;;;;19.63;15.00;;;;;;;;;;5111103;28;20046;-76
2023/10/15 00:48:35;;;;;;;16.58;14.02;;;;;;;;;;5110665;28;20089;-78
2023/10/15 00:51:00;;;;;;;;;;;;;;;;;;5110763;28;20031;-77
2023/10/15 00:53:26;;;;;;;17.10;13.50;;;;;;;;;;5117391;27;20353;-77
2023/10/15 00:56:02;;;;;;;17.63;13.57;;;;;;;;;;5114847;28;20031;-76
2023/10/15 00:58:54;;;;;;;22.35;15.52;;;;;;;;;;5112028;28;20028;-77
2023/10/15 01:03:57;;;;;;;17.40;14.60;;;;;;;;;;5115079;28;20500;-76
2023/10/15 01:08:59;;;;;;;20.98;16.05;;;;;;;;;;5113826;28;20047;-77
2023/10/15 01:11:28;;;;;;;21.95;15.57;;;;;;;;;;5114042;28;20031;-77
2023/10/15 01:13:56;;;;;;;20.20;14.88;;;;;;;;;;5117423;27;20026;-77
2023/10/15 01:16:22;;;;;;;19.20;15.10;;;;;;;;;;5116863;27;20042;-75
2023/10/15 01:21:52;;;;;;;19.02;16.70;;;;;;;;;;5063475;28;20043;-76
2023/10/15 01:24:19;;;;;;;20.77;16.55;;;;;;;;;;5062127;28;20040;-76
2023/10/15 01:26:51;;;;;;;23.33;15.75;;;;;;;;;;5055865;28;20082;-79
2023/10/15 01:29:21;;;;;;;21.80;16.52;;;;;;;;;;5058179;28;20032;-76
2023/10/15 01:31:56;;;;;;;20.13;16.15;;;;;;;;;;5062804;28;20036;-80
2023/10/15 01:34:21;;;;;;;20.75;16.08;;;;;;;;;;5059048;28;20152;-76
2023/10/15 01:36:51;;;;;;;23.05;16.88;;;;;;;;;;5045591;28;20132;-78
2023/10/15 01:39:21;;;;;;;19.88;15.05;;;;;;;;;;5060175;28;20112;-76
2023/10/15 01:41:50;;;;;;;17.95;13.55;;;;;;;;;;5062732;28;20111;-76
2023/10/15 01:44:19;;;;;;;18.02;13.57;;;;;;;;;;5061096;28;20448;-77
2023/10/15 01:49:34;;;;;;;19.17;14.18;;;;;;;;;;5061967;28;20044;-77
2023/10/15 01:52:08;;;;;;;17.33;13.95;;;;;;;;;;5063136;28;20093;-78
2023/10/15 01:54:35;;;;;;;21.88;13.90;;;;;;;;;;5060966;28;20148;-78
2023/10/15 01:57:00;;;;;;;17.13;14.18;;;;;;;;;;5070489;27;20466;-77
2023/10/15 01:59:26;;;;;;;15.23;12.57;;;;;;;;;;5118697;27;20031;-75
2023/10/15 02:01:52;;;;;;;14.73;12.27;;;;;;;;;;5105778;27;20054;-76
2023/10/15 02:04:26;;;;;;;17.98;12.93;;;;;;;;;;5116038;27;20051;-78
2023/10/15 02:06:52;;;;;;;17.13;13.48;;;;;;;;;;5117254;27;20019;-75
2023/10/15 02:09:22;;;;;;;19.15;13.20;;;;;;;;;;5113692;27;20136;-75
2023/10/15 02:11:57;;;;;;;16.25;13.32;;;;;;;;;;5117876;27;20354;-75
2023/10/15 02:14:27;;;;;;;19.38;14.00;;;;;;;;;;5118549;27;20350;-77
2023/10/15 02:16:53;;;;;;;17.02;12.60;;;;;;;;;;5118969;27;20368;-75
2023/10/15 02:21:59;;;;;;;15.00;13.07;;;;;;;;;;5114115;27;20057;-75
2023/10/15 02:24:25;;;;;;;17.17;13.50;;;;;;;;;;5114634;27;20068;-75
2023/10/15 02:26:50;;;;;;;21.33;13.48;;;;;;;;;;5116766;27;20027;-75
2023/10/15 02:29:49;;;;;;;17.67;14.63;;;;;;;;;;5113728;27;20031;-76
2023/10/15 02:34:50;;;;;;;16.42;13.80;;;;;;;;;;5115750;27;20070;-76
2023/10/15 02:37:19;;;;;;;17.38;13.00;;;;;;;;;;5116943;27;20027;-75
2023/10/15 02:39:50;;;;;;;17.23;13.82;;;;;;;;;;5105450;27;20098;-75
2023/10/15 02:42:16;;;;;;;21.38;14.10;;;;;;;;;;5111921;27;20051;-77
2023/10/15 02:44:41;;;;;;;16.45;13.68;;;;;;;;;;5116335;27;20043;-77
2023/10/15 02:50:03;;;;;;;18.73;13.50;;;;;;;;;;5052566;28;20028;-75
2023/10/15 02:52:35;;;;;;;;;;;;;;;;;;5054471;28;20055;-76
2023/10/15 02:55:07;;;;;;;19.20;15.23;;;;;;;;;;5052155;28;20312;-78
2023/10/15 02:57:38;;;;;;;15.55;13.48;;;;;;;;;;5039781;28;20484;-78
2023/10/15 03:00:12;;;;;;;17.33;13.88;;;;;;;;;;5042487;28;20108;-74
2023/10/15 03:02:43;;;;;;;17.73;14.40;;;;;;;;;;5054535;28;20074;-75
2023/10/15 03:05:13;;;;;;;19.23;14.30;;;;;;;;;;5037899;28;20051;-74
2023/10/15 03:07:42;;;;;;;19.05;15.45;;;;;;;;;;5055172;28;20041;-76
2023/10/15 03:10:08;;;;;;;17.27;13.75;;;;;;;;;;5052255;28;20040;-76
2023/10/15 03:12:33;;;;;;;15.55;13.35;;;;;;;;;;5038374;28;20048;-76
2023/10/15 03:15:00;;;;;;;20.77;14.40;;;;;;;;;;5043735;28;20501;-78
2023/10/15 03:17:29;;;;;;;16.85;13.82;;;;;;;;;;5054273;28;20029;-76
2023/10/15 03:19:55;;;;;;;17.40;14.00;;;;;;;;;;5044197;28;20036;-75
2023/10/15 03:22:23;;;;;;;14.80;13.18;;;;;;;;;;5050027;28;20032;-76
2023/10/15 03:24:49;;;;;;;17.37;13.17;;;;;;;;;;5037009;28;20216;-76
2023/10/15 03:27:16;;;;;;;19.67;14.07;;;;;;;;;;5097850;27;20427;-76
2023/10/15 03:29:42;;;;;;;16.52;13.55;;;;;;;;;;5112466;27;20441;-76
2023/10/15 03:32:12;;;;;;;19.65;13.38;;;;;;;;;;5116977;27;20019;-75
2023/10/15 03:34:48;;;;;;;16.42;13.63;;;;;;;;;;5116651;27;20047;-78
2023/10/15 03:37:16;;;;;;;19.00;14.48;;;;;;;;;;5114542;27;20082;-75
2023/10/15 03:42:17;;;;;;;17.98;13.77;;;;;;;;;;5110377;27;20042;-75
2023/10/15 03:44:49;;;;;;;17.48;14.48;;;;;;;;;;5111525;27;20485;-76
2023/10/15 03:47:16;;;;;;;15.48;13.52;;;;;;;;;;5104192;27;20112;-76
2023/10/15 03:49:44;;;;;;;17.90;14.65;;;;;;;;;;5113201;27;20173;-75
2023/10/15 03:52:14;;;;;;;19.73;14.25;;;;;;;;;;5117040;27;20034;-75
2023/10/15 03:54:42;;;;;;;17.08;13.63;;;;;;;;;;5117744;27;20773;-75
2023/10/15 03:57:08;;;;;;;19.52;14.30;;;;;;;;;;5113056;27;20035;-76
2023/10/15 03:59:44;;;;;;;16.58;12.43;;;;;;;;;;5115699;27;20343;-75
2023/10/15 04:02:22;;;;;;;17.67;13.82;;;;;;;;;;5104873;27;20470;-77
2023/10/15 04:04:56;;;;;;;20.95;14.27;;;;;;;;;;5107486;27;20038;-75
2023/10/15 04:07:23;;;;;;;17.63;12.93;;;;;;;;;;5114340;27;20019;-75
2023/10/15 04:09:50;;;;;;;17.70;13.68;;;;;;;;;;5108623;27;20130;-76
2023/10/15 04:12:18;;;;;;;18.63;14.80;;;;;;;;;;5113186;27;20027;-79
2023/10/15 04:14:44;;;;;;;17.45;14.45;;;;;;;;;;5118138;27;20442;-77
2023/10/15 04:17:10;;;;;;;20.40;15.10;;;;;;;;;;5115333;27;20011;-74
2023/10/15 04:19:36;;;;;;;18.38;14.60;;;;;;;;;;5116581;28;20035;-74
2023/10/15 04:22:13;;;;;;;21.17;15.20;;;;;;;;;;5113487;28;20020;-75
2023/10/15 04:24:41;;;;;;;17.50;14.90;;;;;;;;;;5108052;28;23527;-75
2023/10/15 04:27:07;;;;;;;20.13;15.85;;;;;;;;;;5107675;27;20557;-75
2023/10/15 04:29:43;;;;;;;19.27;15.95;;;;;;;;;;5115919;27;20056;-76
2023/10/15 04:32:11;;;;;;;24.38;19.27;;;;;;;;;;5114123;28;20023;-75
2023/10/15 04:34:37;;;;;;;26.02;20.27;;;;;;;;;;5116724;28;20580;-75
2023/10/15 04:37:10;;;;;;;28.33;19.45;;;;;;;;;;5115122;28;20023;-75
2023/10/15 04:39:45;;;;;;;30.27;24.52;;;;;;;;;;5115379;28;20362;-75
2023/10/15 04:42:20;;;;;;;29.35;24.08;;;;;;;;;;5116120;28;20474;-75
2023/10/15 04:44:46;;;;;;;31.45;26.75;;;;;;;;;;5101175;27;20043;-74
2023/10/15 04:47:12;;;;;;;36.15;29.13;;;;;;;;;;5100304;28;20033;-78
2023/10/15 04:49:37;;;;;;;36.80;29.15;;;;;;;;;;5098469;27;20023;-76
2023/10/15 04:52:13;;;;;;;30.42;26.90;;;;;;;;;;5102050;27;20037;-76
2023/10/15 04:54:39;;;;;;;27.73;23.45;;;;;;;;;;5102650;27;20062;-76
2023/10/15 04:57:04;;;;;;;27.08;21.60;;;;;;;;;;5104780;27;20375;-76
2023/10/15 04:59:30;;;;;;;23.23;19.80;;;;;;;;;;5105565;27;22909;-75
2023/10/15 05:01:56;;;;;;;26.20;21.20;;;;;;;;;;5107016;27;20461;-77
2023/10/15 05:04:21;;;;;;;32.38;24.70;;;;;;;;;;5107270;27;20043;-75
2023/10/15 05:06:48;;;;;;;26.15;20.52;;;;;;;;;;5110220;27;20050;-75
2023/10/15 05:09:21;;;;;;;24.42;17.30;;;;;;;;;;5105655;27;20024;-78
2023/10/15 05:11:46;;;;;;;23.38;20.38;;;;;;;;;;5106412;27;20018;-78
2023/10/15 05:14:12;;;;;;;31.75;25.90;;;;;;;;;;5107906;27;20087;-75
2023/10/15 05:16:37;;;;;;;34.60;30.33;;;;;;;;;;5105936;27;21118;-77
2023/10/15 05:19:02;;;;;;;31.35;26.25;;;;;;;;;;5106737;27;20034;-76
2023/10/15 05:21:29;;;;;;;29.65;26.55;;;;;;;;;;5106951;27;20619;-76
2023/10/15 05:23:55;;;;;;;27.90;21.73;;;;;;;;;;5106951;27;20026;-76
2023/10/15 05:26:20;;;;;;;25.90;19.95;;;;;;;;;;5105753;27;20413;-75
2023/10/15 05:28:47;;;;;;;22.10;18.95;;;;;;;;;;5111914;27;20020;-75
2023/10/15 05:31:12;;;;;;;19.20;17.00;;;;;;;;;;5119385;27;20035;-75
2023/10/15 05:33:38;;;;;;;21.63;18.60;;;;;;;;;;5119982;27;20027;-77
2023/10/15 05:36:03;;;;;;;21.55;18.77;;;;;;;;;;5119202;27;20037;-75
2023/10/15 05:38:29;;;;;;;22.52;18.77;;;;;;;;;;5114282;27;20099;-76
2023/10/15 05:40:58;;;;;;;22.17;18.58;;;;;;;;;;5108750;27;20017;-75
2023/10/15 05:43:23;;;;;;;20.50;17.75;;;;;;;;;;5135080;27;20150;-75
2023/10/15 05:45:48;;;;;;;20.52;18.40;;;;;;;;;;5118449;27;20106;-75
2023/10/15 05:48:17;;;;;;;19.45;16.83;;;;;;;;;;5117283;27;20091;-75
2023/10/15 05:50:45;;;;;;;39.20;17.77;;;;;;;;;;5117430;27;20023;-78
2023/10/15 05:53:11;;;;;;;23.10;15.82;;;;;;;;;;5117377;27;20072;-77
2023/10/15 05:55:36;;;;;;;20.08;15.80;;;;;;;;;;5109968;27;20031;-77
2023/10/15 05:58:01;;;;;;;17.48;15.00;;;;;;;;;;5115321;27;20043;-76
2023/10/15 06:00:27;;;;;;;17.80;14.18;;;;;;;;;;5120156;27;20127;-77
2023/10/15 06:02:55;;;;;;;22.83;19.17;;;;;;;;;;5103664;27;21035;-77
2023/10/15 06:05:21;;;;;;;23.02;20.02;;;;;;;;;;5101851;27;20038;-77
2023/10/15 06:07:47;;;;;;;17.17;14.65;;;;;;;;;;5103799;27;20031;-77
2023/10/15 06:10:13;;;;;;;29.38;20.80;;;;;;;;;;5103283;27;20023;-78
2023/10/15 06:12:38;;;;;;;32.75;24.30;;;;;;;;;;5104651;27;20033;-74
2023/10/15 06:15:04;;;;;;;32.97;24.38;;;;;;;;;;5102923;27;20023;-74
2023/10/15 06:17:30;;;;;;;33.95;21.67;;;;;;;;;;5116875;27;20058;-72
2023/10/15 06:19:55;;;;;;;25.52;18.42;;;;;;;;;;5117954;27;20027;-73
2023/10/15 06:22:20;;;;;;;30.92;21.75;;;;;;;;;;5118292;27;20065;-77
2023/10/15 06:24:46;;;;;;;27.45;21.95;;;;;;;;;;5110466;27;20034;-78
2023/10/15 06:27:15;;;;;;;28.10;22.60;;;;;;;;;;5107025;27;20027;-80
2023/10/15 06:29:41;;;;;;;28.52;21.60;;;;;;;;;;5115420;27;20031;-74
2023/10/15 06:32:06;;;;;;;27.63;23.15;;;;;;;;;;5119353;27;20019;-79
2023/10/15 06:34:32;;;;;;;29.92;22.30;;;;;;;;;;5118933;27;20857;-77
2023/10/15 06:36:57;;;;;;;24.40;19.35;;;;;;;;;;5118890;27;20027;-77
2023/10/15 06:39:23;;;;;;;20.92;15.88;;;;;;;;;;5111134;27;20430;-77
2023/10/15 06:41:48;;;;;;;20.88;16.23;;;;;;;;;;5104062;27;20023;-76
2023/10/15 06:44:15;;;;;;;15.45;13.05;;;;;;;;;;5105597;27;20369;-77
2023/10/15 06:46:40;;;;;;;20.95;15.98;;;;;;;;;;5104729;27;20015;-77
2023/10/15 06:49:07;;;;;;;19.38;14.90;;;;;;;;;;5103945;27;20031;-75
2023/10/15 06:51:33;;;;;;;15.98;11.80;;;;;;;;;;5111249;27;21045;-76
2023/10/15 06:53:59;;;;;;;19.77;11.13;;;;;;;;;;5112892;27;20019;-74
2023/10/15 06:56:25;;;;;;;15.43;10.73;;;;;;;;;;5107482;27;20038;-77
2023/10/15 06:58:50;;;;;;;16.45;10.50;;;;;;;;;;5124187;27;20024;-76
2023/10/15 07:01:16;;;;;;;13.38;9.98;;;;;;;;;;5093112;27;20027;-74
2023/10/15 07:03:41;;;;;;;14.65;9.25;;;;;;;;;;5102777;27;20046;-79
2023/10/15 07:06:06;;;;;;;14.30;9.57;;;;;;;;;;5093258;27;20051;-78
2023/10/15 07:08:32;;;;;;;14.10;11.48;;;;;;;;;;5094620;27;20038;-82
2023/10/15 07:10:59;;;;;;;17.08;10.18;;;;;;;;;;5088938;27;20178;-78
2023/10/15 07:13:24;;;;;;;14.15;9.82;;;;;;;;;;5094707;27;20455;-78
2023/10/15 07:15:49;;;;;;;14.75;10.25;;;;;;;;;;5104051;27;20105;-76
2023/10/15 07:18:15;;;;;;;15.02;9.98;;;;;;;;;;5090912;27;20435;-81
2023/10/15 07:20:40;;;;;;;13.13;9.00;;;;;;;;;;5089105;27;20354;-82
2023/10/15 07:23:05;;;;;;;13.05;9.77;;;;;;;;;;5087867;27;20039;-78
2023/10/15 07:25:32;;;;;;;12.23;8.52;;;;;;;;;;5088841;27;20416;-81
2023/10/15 07:27:58;;;;;;;14.40;8.60;;;;;;;;;;5099078;28;20049;-76
2023/10/15 07:30:25;;;;;;;15.48;8.55;;;;;;;;;;5088275;27;20031;-78
2023/10/15 07:32:53;;;;;;;22.15;15.43;;;;;;;;;;5096787;27;20453;-76
2023/10/15 07:35:19;;;;;;;18.60;11.10;;;;;;;;;;5090968;27;20130;-76
2023/10/15 07:37:46;;;;;;;16.38;9.90;;;;;;;;;;5089780;27;20114;-76
2023/10/15 07:40:16;;;;;;;15.07;11.27;;;;;;;;;;5088817;27;20019;-76
2023/10/15 07:42:42;;;;;;;13.27;9.88;;;;;;;;;;5092748;27;20658;-79
2023/10/15 07:45:08;;;;;;;14.93;13.25;;;;;;;;;;5090154;27;20062;-82
2023/10/15 07:47:34;;;;;;;12.77;9.57;;;;;;;;;;5091249;27;20055;-78
2023/10/15 07:49:59;;;;;;;14.40;9.23;;;;;;;;;;5091703;27;20350;-77
2023/10/15 07:52:25;;;;;;;22.58;11.52;;;;;;;;;;5090710;27;20023;-77
2023/10/15 07:54:50;;;;;;;16.70;10.60;;;;;;;;;;5089325;27;20023;-75
2023/10/15 07:57:16;;;;;;;26.85;18.13;;;;;;;;;;5089125;27;20020;-77
2023/10/15 07:59:42;;;;;;;37.03;27.15;;;;;;;;;;5089394;27;20019;-77
2023/10/15 08:02:08;;;;;;;31.13;23.67;;;;;;;;;;5093850;27;20031;-81
2023/10/15 08:04:34;;;;;;;12.60;9.55;;;;;;;;;;5092957;27;20495;-79
2023/10/15 08:07:00;;;;;;;14.18;8.23;;;;;;;;;;5095161;28;20042;-78
2023/10/15 08:09:26;;;;;;;13.38;8.07;;;;;;;;;;5103546;28;20023;-77
2023/10/15 08:11:51;;;;;;;12.10;7.95;;;;;;;;;;5102998;27;20076;-77
2023/10/15 08:14:17;;;;;;;11.40;7.65;;;;;;;;;;5100885;28;20336;-77
2023/10/15 08:16:42;;;;;;;14.30;8.38;;;;;;;;;;5101001;28;20035;-78
2023/10/15 08:19:08;;;;;;;22.52;7.45;;;;;;;;;;5102839;28;20446;-77
2023/10/15 08:21:33;;;;;;;14.93;8.75;;;;;;;;;;5102933;27;20499;-78
2023/10/15 08:23:58;;;;;;;11.98;7.47;;;;;;;;;;5093807;28;20031;-77
2023/10/15 08:26:23;;;;;;;14.15;8.13;;;;;;;;;;5102600;28;20032;-77
2023/10/15 08:28:49;;;;;;;16.00;7.95;;;;;;;;;;5102604;27;20019;-78
2023/10/15 08:31:14;;;;;;;11.57;7.25;;;;;;;;;;5096097;27;20680;-83
2023/10/15 08:33:40;;;;;;;13.07;7.30;;;;;;;;;;5092291;27;20381;-84
2023/10/15 08:36:05;;;;;;;11.15;7.15;;;;;;;;;;5094377;27;20419;-82
2023/10/15 08:38:30;;;;;;;9.93;7.00;;;;;;;;;;5095392;27;20110;-78
2023/10/15 08:40:56;;;;;;;9.73;6.95;;;;;;;;;;5096445;27;20092;-80
2023/10/15 08:43:23;;;;;;;10.55;7.13;;;;;;;;;;5105675;27;20080;-86
2023/10/15 08:45:49;;;;;;;11.65;6.90;;;;;;;;;;5107558;27;20034;-83
2023/10/15 08:48:16;;;;;;;11.90;6.85;;;;;;;;;;5106071;27;20020;-84
2023/10/15 08:50:43;;;;;;;15.02;6.88;;;;;;;;;;5099077;27;20027;-81
2023/10/15 08:53:08;;;;;;;9.95;6.32;;;;;;;;;;5105863;27;20023;-80
2023/10/15 08:55:37;;;;;;;9.38;6.68;;;;;;;;;;5103201;27;20204;-84
2023/10/15 08:58:02;;;;;;;13.13;6.77;;;;;;;;;;5092676;27;20031;-81
2023/10/15 09:00:31;;;;;;;9.68;6.55;;;;;;;;;;5091403;27;20267;-80
2023/10/15 09:02:56;;;;;;;11.20;6.30;;;;;;;;;;5091800;27;20023;-79
2023/10/15 09:05:22;;;;;;;16.38;7.50;;;;;;;;;;5091569;28;20429;-80
2023/10/15 09:07:49;;;;;;;8.45;6.57;;;;;;;;;;5090271;28;20024;-77
2023/10/15 09:10:16;;;;;;;11.55;6.72;;;;;;;;;;5093336;27;20023;-80
2023/10/15 09:12:41;;;;;;;12.00;6.88;;;;;;;;;;5090732;27;20354;-78
2023/10/15 09:15:15;;;;;;;14.43;6.78;;;;;;;;;;5092039;27;20100;-78
2023/10/15 09:17:41;;;;;;;13.77;7.07;;;;;;;;;;5091144;27;20035;-77
2023/10/15 09:20:08;;;;;;;15.77;7.65;;;;;;;;;;5095787;27;20510;-76
2023/10/15 09:22:34;;;;;;;13.75;7.30;;;;;;;;;;5094565;27;20033;-77
2023/10/15 09:24:59;;;;;;;10.10;6.60;;;;;;;;;;5090349;27;20027;-79
2023/10/15 09:27:25;;;;;;;12.20;7.10;;;;;;;;;;5091268;27;20054;-77
2023/10/15 09:30:10;;;;;;;11.27;7.22;;;;;;;;;;5092790;27;20031;-80
2023/10/15 09:32:35;;;;;;;8.73;6.57;;;;;;;;;;5089583;28;20136;-76
2023/10/15 09:35:02;;;;;;;13.25;6.85;;;;;;;;;;5092923;27;20482;-84
2023/10/15 09:37:28;;;;;;;10.07;6.63;;;;;;;;;;5094412;27;20114;-77
2023/10/15 09:39:53;;;;;;;10.07;6.70;;;;;;;;;;5092813;27;20146;-77
2023/10/15 09:42:20;;;;;;;10.40;7.00;;;;;;;;;;5092120;27;20429;-78
2023/10/15 09:44:47;;;;;;;14.57;7.38;;;;;;;;;;5091991;27;20085;-76
2023/10/15 09:47:13;;;;;;;11.50;6.70;;;;;;;;;;5099932;27;20163;-75
2023/10/15 09:49:39;;;;;;;10.38;7.13;;;;;;;;;;5097413;27;21000;-77
2023/10/15 09:52:06;;;;;;;10.63;7.13;;;;;;;;;;5093267;27;20019;-76
2023/10/15 09:54:32;;;;;;;13.52;7.65;;;;;;;;;;5091283;27;20024;-76
2023/10/15 09:56:59;;;;;;;10.70;7.40;;;;;;;;;;5093483;27;20096;-78
2023/10/15 09:59:25;;;;;;;14.50;6.93;;;;;;;;;;5089169;27;20035;-78
2023/10/15 10:01:53;;;;;;;11.63;6.82;;;;;;;;;;5091009;27;20034;-79
2023/10/15 10:04:42;;;;;;;12.55;7.25;;;;;;;;;;5098421;27;20030;-76
2023/10/15 10:07:26;;;;;;;20.37;9.13;;;;;;;;;;5118782;27;20040;-77
2023/10/15 10:10:04;;;;;;;12.23;6.57;;;;;;;;;;5117593;27;20260;-76
2023/10/15 10:12:46;;;;;;;14.55;6.88;;;;;;;;;;5113507;27;20453;-75
2023/10/15 10:15:30;;;;;;;11.43;6.38;;;;;;;;;;5151159;27;20035;-75
2023/10/15 10:17:55;;;;;;;9.27;6.13;;;;;;;;;;5118983;27;20023;-76
2023/10/15 10:20:30;;;;;;;10.80;6.30;;;;;;;;;;5119451;27;20068;-76
2023/10/15 10:23:00;;;;;;;10.63;6.63;;;;;;;;;;5116769;27;20029;-77
2023/10/15 10:25:37;;;;;;;12.65;7.35;;;;;;;;;;5112815;27;20039;-81
2023/10/15 10:28:09;;;;;;;12.20;6.90;;;;;;;;;;5103512;27;20150;-82
2023/10/15 10:30:36;;;;;;;9.88;6.50;;;;;;;;;;5101903;27;20062;-77
2023/10/15 10:33:04;;;;;;;11.30;6.72;;;;;;;;;;5111559;27;20016;-79
2023/10/15 10:35:45;;;;;;;12.63;6.80;;;;;;;;;;5118548;27;20121;-77
2023/10/15 10:38:21;;;;;;;12.38;6.18;;;;;;;;;;5103963;27;20019;-79
2023/10/15 10:40:54;;;;;;;8.20;6.10;;;;;;;;;;5105054;27;20306;-76
2023/10/15 10:43:21;;;;;;;11.63;5.50;;;;;;;;;;5120705;27;20026;-77
2023/10/15 10:46:06;;;;;;;8.77;5.53;;;;;;;;;;5104084;27;24061;-78
2023/10/15 10:48:39;;;;;;;12.23;6.38;;;;;;;;;;5103552;27;20118;-76
2023/10/15 10:51:15;;;;;;;7.35;5.40;;;;;;;;;;5104169;27;20418;-76
2023/10/15 10:53:56;;;;;;;9.32;6.60;;;;;;;;;;5104648;27;20657;-75
2023/10/15 10:56:25;;;;;;;8.15;5.85;;;;;;;;;;5104588;27;20035;-75
2023/10/15 10:58:56;;;;;;;11.15;6.75;;;;;;;;;;5100205;27;20050;-77
2023/10/15 11:01:22;;;;;;;9.80;6.53;;;;;;;;;;5101754;27;20046;-77
2023/10/15 11:03:47;;;;;;;11.50;5.72;;;;;;;;;;5103680;27;20073;-74
2023/10/15 11:06:13;;;;;;;8.15;5.93;;;;;;;;;;5102763;27;20102;-76
2023/10/15 11:08:38;;;;;;;8.45;5.70;;;;;;;;;;5107971;27;20157;-77
2023/10/15 11:11:04;;;;;;;12.32;6.40;;;;;;;;;;5116455;27;21139;-77
2023/10/15 11:13:29;;;;;;;12.07;8.48;;;;;;;;;;5116421;27;20053;-74
2023/10/15 11:15:54;;;;;;;14.40;7.90;;;;;;;;;;5117552;27;20023;-76
2023/10/15 11:18:24;;;;;;;10.23;5.57;;;;;;;;;;5101620;27;20510;-75
2023/10/15 11:20:53;;;;;;;8.48;5.70;;;;;;;;;;5103725;27;20442;-74
2023/10/15 11:23:23;;;;;;;7.57;5.57;;;;;;;;;;5103564;27;20894;-77
2023/10/15 11:25:50;;;;;;;8.40;5.35;;;;;;;;;;5117278;27;20031;-76
2023/10/15 11:28:18;;;;;;;8.73;5.55;;;;;;;;;;5102453;27;20037;-74
2023/10/15 11:30:44;;;;;;;12.30;5.75;;;;;;;;;;5102618;27;20753;-75
2023/10/15 11:33:11;;;;;;;7.68;5.03;;;;;;;;;;5103215;27;20029;-76
2023/10/15 11:35:37;;;;;;;8.70;5.88;;;;;;;;;;5104192;27;20049;-74
2023/10/15 11:38:08;;;;;;;9.38;5.60;;;;;;;;;;5102670;27;20028;-75
2023/10/15 11:40:36;;;;;;;9.38;5.88;;;;;;;;;;5101868;27;20036;-75
2023/10/15 11:43:02;;;;;;;8.73;5.38;;;;;;;;;;5103209;27;20448;-74
2023/10/15 11:45:30;;;;;;;8.07;5.30;;;;;;;;;;5107619;27;20044;-76
2023/10/15 11:47:56;;;;;;;8.88;5.50;;;;;;;;;;5108658;27;20050;-74
2023/10/15 11:50:24;;;;;;;10.25;6.20;;;;;;;;;;5108656;27;20077;-74
2023/10/15 11:52:52;;;;;;;9.75;5.70;;;;;;;;;;5111440;27;20055;-75
2023/10/15 11:55:22;;;;;;;6.95;5.28;;;;;;;;;;5113859;27;20039;-76
2023/10/15 11:57:50;;;;;;;9.23;4.90;;;;;;;;;;5112403;27;20031;-75
2023/10/15 12:00:39;;;;;;;15.13;5.38;;;;;;;;;;5115853;27;20042;-75
2023/10/15 12:03:05;;;;;;;8.52;5.60;;;;;;;;;;5109171;27;20141;-74
2023/10/15 12:05:31;;;;;;;8.40;5.10;;;;;;;;;;5106567;27;20413;-74
2023/10/15 12:07:59;;;;;;;9.98;5.75;;;;;;;;;;5115911;27;20068;-75
2023/10/15 12:10:25;;;;;;;6.50;4.70;;;;;;;;;;5113508;27;20104;-74
2023/10/15 12:12:50;;;;;;;9.48;5.43;;;;;;;;;;5115013;27;20331;-73
2023/10/15 12:15:16;;;;;;;11.75;5.35;;;;;;;;;;5114685;27;20028;-74
2023/10/15 12:17:41;;;;;;;9.27;5.85;;;;;;;;;;5112890;27;20030;-73
2023/10/15 12:20:07;;;;;;;8.13;5.72;;;;;;;;;;5114157;27;20439;-73
2023/10/15 12:22:33;;;;;;;10.88;5.32;;;;;;;;;;5097144;27;20042;-75
2023/10/15 12:25:00;;;;;;;9.15;5.47;;;;;;;;;;5100337;28;20585;-76
2023/10/15 12:27:28;;;;;;;7.90;4.95;;;;;;;;;;5093488;28;20054;-73
2023/10/15 12:29:54;;;;;;;9.32;4.80;;;;;;;;;;5110814;28;20028;-72
2023/10/15 12:32:20;;;;;;;6.20;4.15;;;;;;;;;;5117460;27;20030;-73
2023/10/15 12:34:45;;;;;;;8.65;5.95;;;;;;;;;;5111165;28;20049;-75
2023/10/15 12:37:15;;;;;;;8.70;5.03;;;;;;;;;;5100483;28;20043;-73
2023/10/15 12:39:40;;;;;;;7.00;4.63;;;;;;;;;;5109923;28;20027;-72
2023/10/15 12:42:08;;;;;;;8.13;4.90;;;;;;;;;;5113725;27;20252;-73
2023/10/15 12:44:39;;;;;;;7.00;4.83;;;;;;;;;;5116447;28;20388;-75
2023/10/15 12:47:04;;;;;;;7.25;4.97;;;;;;;;;;5113034;28;20260;-72
2023/10/15 12:49:29;;;;;;;8.98;4.88;;;;;;;;;;5116634;28;20431;-73
2023/10/15 12:51:55;;;;;;;9.82;5.00;;;;;;;;;;5114422;28;20019;-75
2023/10/15 12:54:20;;;;;;;11.57;6.22;;;;;;;;;;5116537;27;20030;-73
2023/10/15 12:56:45;;;;;;;9.85;5.00;;;;;;;;;;5114740;27;20357;-72
2023/10/15 12:59:11;;;;;;;9.95;6.00;;;;;;;;;;5104769;27;20707;-74
2023/10/15 13:01:40;;;;;;;6.55;4.85;;;;;;;;;;5101497;28;20030;-72
2023/10/15 13:04:05;;;;;;;;;;;;;;;;;;5116811;27;20030;-74
2023/10/15 13:06:31;;;;;;;7.27;5.03;;;;;;;;;;5104823;28;19920;-73
2023/10/15 13:08:56;;;;;;;14.80;10.23;;;;;;;;;;5115327;27;20098;-73
2023/10/15 13:11:21;;;;;;;19.38;11.18;;;;;;;;;;5114197;28;20102;-73
2023/10/15 13:13:47;;;;;;;9.45;7.43;;;;;;;;;;5114721;27;20110;-74
2023/10/15 13:16:12;;;;;;;10.55;6.82;;;;;;;;;;5105348;27;20051;-74
2023/10/15 13:18:39;;;;;;;9.90;7.45;;;;;;;;;;5109150;27;20031;-76
2023/10/15 13:21:06;;;;;;;12.52;9.10;;;;;;;;;;5105036;27;20079;-76
2023/10/15 13:23:31;;;;;;;12.80;8.70;;;;;;;;;;5105014;27;20015;-75
2023/10/15 13:25:57;;;;;;;18.08;11.07;;;;;;;;;;5091140;27;20042;-77
2023/10/15 13:28:22;;;;;;;19.63;10.93;;;;;;;;;;5091815;27;20024;-73
2023/10/15 13:30:47;;;;;;;16.90;8.63;;;;;;;;;;5089392;27;20110;-74
2023/10/15 13:33:13;;;;;;;12.20;7.18;;;;;;;;;;5093271;27;20407;-75
2023/10/15 13:35:38;;;;;;;14.93;9.10;;;;;;;;;;5091940;27;20070;-74
2023/10/15 13:38:04;;;;;;;13.95;9.32;;;;;;;;;;5091209;27;20442;-74
2023/10/15 13:40:32;;;;;;;14.15;8.75;;;;;;;;;;5091431;27;20435;-74
2023/10/15 13:42:59;;;;;;;14.02;9.48;;;;;;;;;;5090667;27;20463;-75
2023/10/15 13:45:25;;;;;;;11.70;9.00;;;;;;;;;;5091050;27;20104;-75
2023/10/15 13:47:50;;;;;;;12.57;8.88;;;;;;;;;;5095023;27;20775;-74
2023/10/15 13:50:18;;;;;;;14.65;10.50;;;;;;;;;;5110678;27;20022;-75
2023/10/15 13:52:44;;;;;;;14.47;11.00;;;;;;;;;;5117698;27;20031;-74
2023/10/15 13:55:11;;;;;;;18.73;11.73;;;;;;;;;;5115974;27;20023;-75
2023/10/15 13:57:38;;;;;;;13.63;12.13;;;;;;;;;;5120304;27;20019;-74
2023/10/15 14:00:11;;;;;;;17.70;13.07;;;;;;;;;;5120743;27;20049;-74
2023/10/15 14:02:36;;;;;;;18.00;13.90;;;;;;;;;;5115681;27;20027;-73
2023/10/15 14:05:05;;;;;;;19.02;13.98;;;;;;;;;;5117882;27;20116;-75
2023/10/15 14:07:30;;;;;;;21.00;15.18;;;;;;;;;;5117473;27;20035;-75
2023/10/15 14:09:55;;;;;;;23.25;16.63;;;;;;;;;;5119245;27;20418;-76
2023/10/15 14:12:21;;;;;;;24.25;17.08;;;;;;;;;;5118787;27;20867;-75
2023/10/15 14:14:47;;;;;;;24.55;16.85;;;;;;;;;;5116615;27;20038;-75
2023/10/15 14:17:12;;;;;;;21.73;17.63;;;;;;;;;;5105929;27;20121;-72
2023/10/15 14:19:38;;;;;;;21.75;19.17;;;;;;;;;;5118302;27;20034;-74
2023/10/15 14:22:04;;;;;;;22.67;16.77;;;;;;;;;;5118495;27;20022;-74
2023/10/15 14:24:29;;;;;;;22.92;17.23;;;;;;;;;;5117317;27;20019;-76
2023/10/15 14:26:55;;;;;;;17.75;15.82;;;;;;;;;;5108675;27;20034;-74
2023/10/15 14:29:20;;;;;;;21.27;17.35;;;;;;;;;;5112988;27;20138;-75
2023/10/15 14:31:46;;;;;;;26.15;21.67;;;;;;;;;;5116735;27;20019;-76
2023/10/15 14:34:12;;;;;;;33.50;24.58;;;;;;;;;;5115385;27;20069;-76
2023/10/15 14:36:41;;;;;;;19.35;13.80;;;;;;;;;;5106624;27;20366;-75
2023/10/15 14:39:09;;;;;;;15.65;11.82;;;;;;;;;;5104796;27;20099;-76
2023/10/15 14:41:35;;;;;;;15.65;11.60;;;;;;;;;;5103097;27;20065;-73
2023/10/15 14:44:02;;;;;;;14.23;11.68;;;;;;;;;;5104409;27;20023;-77
2023/10/15 14:46:27;;;;;;;11.80;10.60;;;;;;;;;;5105067;27;20038;-74
2023/10/15 14:48:52;;;;;;;11.95;10.45;;;;;;;;;;5103192;27;20035;-75
2023/10/15 14:51:18;;;;;;;11.98;10.60;;;;;;;;;;5115725;27;20091;-75